createdAt,value
2019-05-30T00:00:06.755Z,21.42
2019-05-30T00:02:26.589Z,21.35
2019-05-30T00:05:00.206Z,21.32
2019-05-30T00:07:32.744Z,21.27
2019-05-30T00:10:07.369Z,21.21
2019-05-30T00:12:39.535Z,21.12
2019-05-30T00:15:12.315Z,21.12
2019-05-30T00:17:44.481Z,21.12
2019-05-30T00:20:17.162Z,21.00
2019-05-30T00:22:49.739Z,21.06
2019-05-30T00:25:22.826Z,21.06
2019-05-30T00:27:55.402Z,21.01
2019-05-30T00:30:27.983Z,20.92
2019-05-30T00:33:00.766Z,20.92
2019-05-30T00:35:32.932Z,20.88
2019-05-30T00:38:06.071Z,20.82
2019-05-30T00:40:38.283Z,20.71
2019-05-30T00:43:11.066Z,20.77
2019-05-30T00:45:43.136Z,20.72
2019-05-30T00:48:15.608Z,20.69
2019-05-30T00:50:47.883Z,20.70
2019-05-30T00:53:20.567Z,20.65
2019-05-30T00:55:53.034Z,20.62
2019-05-30T00:58:25.093Z,20.58
2019-05-30T01:00:59.051Z,20.53
2019-05-30T01:03:31.803Z,20.52
2019-05-30T01:06:04.987Z,20.48
2019-05-30T01:08:37.450Z,20.47
2019-05-30T01:11:09.925Z,20.44
2019-05-30T01:13:42.091Z,20.40
2019-05-30T01:16:14.358Z,20.39
2019-05-30T01:18:47.137Z,20.33
2019-05-30T01:21:19.614Z,20.30
2019-05-30T01:23:51.883Z,20.28
2019-05-30T01:26:24.258Z,20.30
2019-05-30T01:28:57.324Z,20.26
2019-05-30T01:31:29.610Z,20.26
2019-05-30T01:34:02.086Z,20.23
2019-05-30T01:36:34.568Z,20.27
2019-05-30T01:39:08.184Z,20.25
2019-05-30T01:41:40.740Z,20.29
2019-05-30T01:44:13.011Z,20.26
2019-05-30T01:46:45.606Z,20.34
2019-05-30T01:49:18.064Z,20.33
2019-05-30T01:51:50.446Z,20.36
2019-05-30T01:54:23.112Z,20.33
2019-05-30T01:56:55.289Z,20.25
2019-05-30T01:59:28.570Z,20.28
2019-05-30T02:02:01.154Z,20.21
2019-05-30T02:04:35.259Z,20.13
2019-05-30T02:07:09.299Z,20.26
2019-05-30T02:09:41.640Z,20.05
2019-05-30T02:12:14.116Z,19.91
2019-05-30T02:14:46.495Z,19.86
2019-05-30T02:17:18.760Z,19.94
2019-05-30T02:19:51.131Z,19.98
2019-05-30T02:22:23.713Z,20.16
2019-05-30T02:24:56.178Z,20.15
2019-05-30T02:27:28.513Z,20.09
2019-05-30T02:30:03.276Z,20.03
2019-05-30T02:32:35.148Z,20.07
2019-05-30T02:35:10.299Z,20.16
2019-05-30T02:37:42.451Z,20.07
2019-05-30T02:40:16.675Z,20.04
2019-05-30T02:42:49.045Z,19.94
2019-05-30T02:45:21.707Z,20.04
2019-05-30T02:47:53.880Z,20.03
2019-05-30T02:50:26.149Z,19.77
2019-05-30T02:52:58.927Z,19.68
2019-05-30T02:55:31.403Z,19.66
2019-05-30T02:58:05.983Z,19.95
2019-05-30T03:00:38.913Z,19.78
2019-05-30T03:03:14.272Z,19.88
2019-05-30T03:05:46.320Z,19.93
2019-05-30T03:08:19.102Z,20.17
2019-05-30T03:10:51.986Z,20.22
2019-05-30T03:13:24.456Z,20.48
2019-05-30T03:15:56.728Z,20.35
2019-05-30T03:18:29.512Z,20.64
2019-05-30T03:21:03.275Z,20.88
2019-05-30T03:23:36.097Z,21.09
2019-05-30T03:26:10.740Z,21.52
2019-05-30T03:28:42.785Z,21.66
2019-05-30T03:31:27.881Z,21.54
2019-05-30T03:33:52.347Z,21.25
2019-05-30T03:36:30.927Z,20.96
2019-05-30T03:38:58.929Z,20.98
2019-05-30T03:41:32.423Z,21.33
2019-05-30T03:44:06.014Z,21.37
2019-05-30T03:46:42.493Z,21.23
2019-05-30T03:49:17.732Z,21.40
2019-05-30T03:51:51.720Z,21.56
2019-05-30T03:54:25.317Z,21.81
2019-05-30T03:57:04.743Z,21.75
2019-05-30T03:59:43.498Z,21.97
2019-05-30T04:02:28.372Z,22.19
2019-05-30T04:05:16.412Z,22.40
2019-05-30T04:07:54.604Z,22.43
2019-05-30T04:10:30.169Z,22.71
2019-05-30T04:13:12.886Z,22.76
2019-05-30T04:15:46.278Z,22.99
2019-05-30T04:18:19.533Z,23.21
2019-05-30T04:20:51.934Z,23.35
2019-05-30T04:23:24.223Z,23.26
2019-05-30T04:26:00.280Z,23.42
2019-05-30T04:28:30.301Z,23.63
2019-05-30T04:31:02.856Z,23.54
2019-05-30T04:33:35.549Z,23.72
2019-05-30T04:36:08.539Z,23.96
2019-05-30T04:38:40.909Z,24.55
2019-05-30T04:41:15.989Z,24.74
2019-05-30T04:43:48.410Z,24.77
2019-05-30T04:46:21.756Z,24.96
2019-05-30T04:48:54.482Z,24.65
2019-05-30T04:51:26.950Z,24.86
2019-05-30T04:53:59.641Z,24.80
2019-05-30T04:56:31.903Z,24.95
2019-05-30T04:59:04.585Z,25.31
2019-05-30T05:01:37.373Z,25.21
2019-05-30T05:04:11.387Z,25.39
2019-05-30T05:06:43.943Z,25.56
2019-05-30T05:09:18.019Z,25.44
2019-05-30T05:11:50.532Z,26.01
2019-05-30T05:14:22.910Z,25.68
2019-05-30T05:16:55.282Z,25.76
2019-05-30T05:19:27.762Z,25.87
2019-05-30T05:22:00.432Z,25.85
2019-05-30T05:24:32.714Z,26.10
2019-05-30T05:27:05.478Z,26.69
2019-05-30T05:29:37.955Z,26.79
2019-05-30T05:32:10.838Z,26.22
2019-05-30T05:34:43.112Z,26.46
2019-05-30T05:37:16.910Z,26.69
2019-05-30T05:39:49.389Z,27.24
2019-05-30T05:42:22.539Z,27.06
2019-05-30T05:44:54.952Z,26.91
2019-05-30T05:47:28.584Z,26.47
2019-05-30T05:50:01.127Z,27.00
2019-05-30T05:52:34.959Z,27.25
2019-05-30T05:55:13.555Z,27.24
2019-05-30T05:57:45.928Z,27.14
2019-05-30T06:00:19.074Z,27.21
2019-05-30T06:02:51.990Z,27.21
2019-05-30T06:05:24.411Z,27.25
2019-05-30T06:07:56.959Z,27.14
2019-05-30T06:10:29.627Z,27.64
2019-05-30T06:13:02.106Z,27.78
2019-05-30T06:15:34.780Z,27.71
2019-05-30T06:18:07.358Z,27.81
2019-05-30T06:20:39.931Z,27.68
2019-05-30T06:23:12.309Z,27.63
2019-05-30T06:25:44.688Z,27.72
2019-05-30T06:28:17.977Z,27.65
2019-05-30T06:30:50.241Z,27.61
2019-05-30T06:33:23.497Z,28.03
2019-05-30T06:35:56.829Z,27.19
2019-05-30T06:38:29.515Z,27.31
2019-05-30T06:41:02.082Z,27.44
2019-05-30T06:43:34.862Z,27.87
2019-05-30T06:46:07.128Z,27.92
2019-05-30T06:48:39.710Z,27.81
2019-05-30T06:51:14.505Z,27.68
2019-05-30T06:53:46.560Z,27.84
2019-05-30T06:56:21.124Z,27.99
2019-05-30T06:58:53.495Z,27.37
2019-05-30T07:01:25.972Z,27.68
2019-05-30T07:04:00.378Z,27.79
2019-05-30T07:06:33.765Z,27.66
2019-05-30T07:09:08.547Z,27.94
2019-05-30T07:11:40.990Z,27.84
2019-05-30T07:14:13.668Z,27.94
2019-05-30T07:16:46.256Z,27.96
2019-05-30T07:19:18.940Z,27.86
2019-05-30T07:21:53.144Z,28.19
2019-05-30T07:24:26.227Z,27.93
2019-05-30T07:26:59.321Z,27.98
2019-05-30T07:29:32.193Z,28.05
2019-05-30T07:32:05.093Z,28.26
2019-05-30T07:34:37.356Z,27.80
2019-05-30T07:37:10.240Z,28.06
2019-05-30T07:39:42.510Z,28.34
2019-05-30T07:42:14.985Z,28.50
2019-05-30T07:44:47.661Z,28.70
2019-05-30T07:47:20.048Z,29.32
2019-05-30T07:49:52.618Z,29.46
2019-05-30T07:52:26.369Z,29.71
2019-05-30T07:54:59.332Z,29.75
2019-05-30T07:57:32.853Z,29.23
2019-05-30T08:00:08.238Z,29.49
2019-05-30T08:02:41.022Z,29.44
2019-05-30T08:05:23.732Z,28.97
2019-05-30T08:07:47.817Z,28.74
2019-05-30T08:10:22.151Z,29.09
2019-05-30T08:12:54.602Z,28.94
2019-05-30T08:15:27.266Z,29.01
2019-05-30T08:17:59.865Z,28.68
2019-05-30T08:20:33.813Z,28.91
2019-05-30T08:23:09.639Z,29.04
2019-05-30T08:25:40.253Z,28.82
2019-05-30T08:28:13.715Z,29.06
2019-05-30T08:30:47.046Z,29.08
2019-05-30T08:33:21.681Z,28.96
2019-05-30T08:35:53.526Z,29.00
2019-05-30T08:38:26.003Z,29.08
2019-05-30T08:40:59.709Z,28.93
2019-05-30T08:43:33.379Z,29.44
2019-05-30T08:46:05.781Z,29.79
2019-05-30T08:48:38.387Z,29.73
2019-05-30T08:51:10.867Z,29.35
2019-05-30T08:53:43.515Z,29.78
2019-05-30T08:56:16.090Z,29.89
2019-05-30T08:58:48.754Z,30.16
2019-05-30T09:01:21.260Z,29.93
2019-05-30T09:03:55.365Z,29.72
2019-05-30T09:06:27.626Z,29.81
2019-05-30T09:09:00.101Z,30.06
2019-05-30T09:11:32.678Z,29.95
2019-05-30T09:14:06.361Z,30.08
2019-05-30T09:16:38.548Z,29.90
2019-05-30T09:19:11.224Z,29.91
2019-05-30T09:21:43.599Z,30.03
2019-05-30T09:24:15.873Z,29.86
2019-05-30T09:26:50.282Z,30.07
2019-05-30T09:29:22.145Z,29.90
2019-05-30T09:31:54.622Z,29.69
2019-05-30T09:34:27.405Z,29.55
2019-05-30T09:36:59.871Z,29.77
2019-05-30T09:39:32.253Z,29.87
2019-05-30T09:42:04.828Z,29.83
2019-05-30T09:44:37.300Z,29.92
2019-05-30T09:47:11.217Z,30.18
2019-05-30T09:49:44.673Z,30.18
2019-05-30T09:52:17.086Z,30.07
2019-05-30T09:54:50.356Z,30.40
2019-05-30T09:57:22.743Z,30.77
2019-05-30T09:59:55.441Z,31.03
2019-05-30T10:02:28.098Z,30.80
2019-05-30T10:05:00.389Z,30.83
2019-05-30T10:07:33.658Z,30.78
2019-05-30T10:10:07.214Z,31.07
2019-05-30T10:12:39.837Z,30.89
2019-05-30T10:15:12.952Z,30.60
2019-05-30T10:17:46.242Z,30.55
2019-05-30T10:20:19.747Z,30.55
2019-05-30T10:22:53.751Z,31.01
2019-05-30T10:25:26.315Z,31.26
2019-05-30T10:27:58.778Z,30.92
2019-05-30T10:30:31.563Z,30.99
2019-05-30T10:33:04.245Z,31.21
2019-05-30T10:35:36.360Z,31.03
2019-05-30T10:38:09.291Z,30.89
2019-05-30T10:40:41.664Z,30.82
2019-05-30T10:43:14.137Z,31.01
2019-05-30T10:45:47.965Z,31.08
2019-05-30T10:48:21.296Z,31.11
2019-05-30T10:50:54.445Z,31.20
2019-05-30T10:53:27.163Z,31.26
2019-05-30T10:55:59.492Z,31.24
2019-05-30T10:58:32.055Z,31.29
2019-05-30T11:01:05.350Z,31.01
2019-05-30T11:03:38.032Z,31.07
2019-05-30T11:06:28.623Z,31.06
2019-05-30T11:09:04.889Z,30.93
2019-05-30T11:11:37.570Z,30.99
2019-05-30T11:14:10.151Z,30.85
2019-05-30T11:16:42.626Z,31.11
2019-05-30T11:19:15.499Z,30.92
2019-05-30T11:21:47.977Z,30.86
2019-05-30T11:24:20.453Z,30.71
2019-05-30T11:26:54.192Z,30.85
2019-05-30T11:29:27.145Z,30.89
2019-05-30T11:32:00.438Z,30.71
2019-05-30T11:34:33.117Z,30.69
2019-05-30T11:37:18.841Z,30.71
2019-05-30T11:39:39.599Z,30.85
2019-05-30T11:42:11.764Z,30.76
2019-05-30T11:44:44.243Z,30.49
2019-05-30T11:47:16.520Z,30.59
2019-05-30T11:49:49.560Z,30.73
2019-05-30T11:52:21.974Z,30.66
2019-05-30T11:54:55.758Z,30.61
2019-05-30T11:57:28.457Z,30.46
2019-05-30T12:00:00.830Z,30.53
2019-05-30T12:02:33.714Z,30.63
2019-05-30T12:05:07.189Z,30.45
2019-05-30T12:07:40.813Z,30.39
2019-05-30T12:10:14.190Z,30.29
2019-05-30T12:12:46.574Z,30.49
2019-05-30T12:15:19.767Z,30.46
2019-05-30T12:17:53.254Z,30.50
2019-05-30T12:20:25.844Z,30.29
2019-05-30T12:22:58.419Z,30.53
2019-05-30T12:25:30.898Z,30.64
2019-05-30T12:28:04.645Z,30.79
2019-05-30T12:30:37.379Z,30.82
2019-05-30T12:33:09.910Z,30.70
2019-05-30T12:35:42.528Z,30.74
2019-05-30T12:38:14.800Z,30.72
2019-05-30T12:40:47.373Z,30.48
2019-05-30T12:43:19.752Z,30.78
2019-05-30T12:45:52.873Z,30.96
2019-05-30T12:48:25.214Z,30.68
2019-05-30T12:50:57.904Z,30.80
2019-05-30T12:53:30.394Z,30.73
2019-05-30T12:56:03.351Z,30.91
2019-05-30T12:58:37.057Z,30.43
2019-05-30T13:01:09.462Z,30.75
2019-05-30T13:03:43.261Z,30.84
2019-05-30T13:06:15.602Z,30.83
2019-05-30T13:08:48.072Z,30.75
2019-05-30T13:11:20.550Z,30.67
2019-05-30T13:13:55.019Z,30.89
2019-05-30T13:16:27.037Z,30.73
2019-05-30T13:19:00.020Z,30.96
2019-05-30T13:21:32.599Z,31.00
2019-05-30T13:24:06.030Z,31.23
2019-05-30T13:26:38.361Z,31.30
2019-05-30T13:29:10.948Z,30.81
2019-05-30T13:31:43.210Z,31.25
2019-05-30T13:34:15.788Z,31.22
2019-05-30T13:36:49.287Z,31.11
2019-05-30T13:39:21.966Z,31.08
2019-05-30T13:41:54.542Z,30.84
2019-05-30T13:44:27.221Z,30.76
2019-05-30T13:47:00.850Z,30.99
2019-05-30T13:49:33.296Z,30.48
2019-05-30T13:52:07.130Z,30.46
2019-05-30T13:54:40.934Z,30.51
2019-05-30T13:57:13.481Z,30.48
2019-05-30T13:59:45.858Z,30.60
2019-05-30T14:02:18.561Z,30.76
2019-05-30T14:04:50.908Z,30.76
2019-05-30T14:07:23.490Z,30.31
2019-05-30T14:09:56.059Z,30.02
2019-05-30T14:12:28.535Z,29.74
2019-05-30T14:15:03.334Z,29.75
2019-05-30T14:17:35.744Z,29.45
2019-05-30T14:20:09.101Z,29.53
2019-05-30T14:22:42.009Z,29.55
2019-05-30T14:25:15.219Z,29.80
2019-05-30T14:27:47.473Z,29.78
2019-05-30T14:30:22.104Z,29.80
2019-05-30T14:32:54.471Z,29.65
2019-05-30T14:35:27.866Z,29.63
2019-05-30T14:38:00.446Z,29.67
2019-05-30T14:40:32.919Z,29.79
2019-05-30T14:43:05.595Z,29.72
2019-05-30T14:45:38.379Z,29.71
2019-05-30T14:48:10.852Z,29.56
2019-05-30T14:50:43.429Z,29.40
2019-05-30T14:53:17.115Z,29.33
2019-05-30T14:55:49.508Z,29.29
2019-05-30T14:58:21.979Z,29.17
2019-05-30T15:00:54.464Z,29.00
2019-05-30T15:03:27.309Z,29.05
2019-05-30T15:05:59.607Z,29.04
2019-05-30T15:08:32.395Z,29.00
2019-05-30T15:11:05.483Z,28.97
2019-05-30T15:13:38.671Z,28.98
2019-05-30T15:16:10.944Z,28.85
2019-05-30T15:18:43.417Z,28.82
2019-05-30T15:21:16.620Z,28.79
2019-05-30T15:23:48.976Z,28.91
2019-05-30T15:26:21.456Z,29.07
2019-05-30T15:28:53.926Z,29.27
2019-05-30T15:31:26.502Z,29.05
2019-05-30T15:33:58.767Z,28.97
2019-05-30T15:36:31.256Z,28.99
2019-05-30T15:39:05.153Z,28.92
2019-05-30T15:41:37.526Z,28.88
2019-05-30T15:44:09.897Z,28.72
2019-05-30T15:46:42.268Z,28.78
2019-05-30T15:49:14.542Z,28.67
2019-05-30T15:51:46.909Z,28.94
2019-05-30T15:54:19.772Z,28.87
2019-05-30T15:56:52.157Z,29.03
2019-05-30T15:59:24.537Z,29.11
2019-05-30T16:01:57.562Z,29.27
2019-05-30T16:04:29.895Z,29.19
2019-05-30T16:07:02.270Z,28.89
2019-05-30T16:09:46.844Z,29.03
2019-05-30T16:12:11.003Z,29.13
2019-05-30T16:14:43.272Z,28.92
2019-05-30T16:17:15.869Z,29.15
2019-05-30T16:19:48.839Z,29.34
2019-05-30T16:22:22.665Z,29.15
2019-05-30T16:24:55.235Z,29.16
2019-05-30T16:27:31.047Z,29.17
2019-05-30T16:30:03.011Z,29.44
2019-05-30T16:32:36.221Z,29.13
2019-05-30T16:35:09.220Z,29.03
2019-05-30T16:37:41.788Z,28.91
2019-05-30T16:40:16.237Z,28.77
2019-05-30T16:42:49.096Z,28.67
2019-05-30T16:45:25.043Z,28.56
2019-05-30T16:47:55.988Z,28.46
2019-05-30T16:50:28.673Z,28.28
2019-05-30T16:53:01.344Z,28.17
2019-05-30T16:55:33.821Z,27.92
2019-05-30T16:58:06.793Z,27.86
2019-05-30T17:00:39.076Z,27.72
2019-05-30T17:03:11.748Z,27.58
2019-05-30T17:05:44.228Z,27.46
2019-05-30T17:08:16.496Z,27.31
2019-05-30T17:10:50.404Z,27.25
2019-05-30T17:13:23.858Z,27.14
2019-05-30T17:15:57.301Z,27.06
2019-05-30T17:18:29.772Z,26.97
2019-05-30T17:21:03.681Z,26.85
2019-05-30T17:23:36.152Z,26.82
2019-05-30T17:26:08.628Z,26.73
2019-05-30T17:28:41.099Z,26.63
2019-05-30T17:31:13.475Z,26.53
2019-05-30T17:33:46.252Z,26.44
2019-05-30T17:36:18.526Z,26.34
2019-05-30T17:38:51.956Z,26.26
2019-05-30T17:41:24.840Z,26.27
2019-05-30T17:43:57.193Z,26.18
2019-05-30T17:46:30.232Z,26.07
2019-05-30T17:49:04.891Z,25.99
2019-05-30T17:51:37.363Z,25.96
2019-05-30T17:54:10.291Z,25.87
2019-05-30T17:56:43.753Z,25.84
2019-05-30T17:59:16.116Z,25.75
2019-05-30T18:01:48.796Z,25.73
2019-05-30T18:04:22.380Z,25.66
2019-05-30T18:06:54.775Z,25.66
2019-05-30T18:09:27.658Z,25.59
2019-05-30T18:11:59.985Z,25.52
2019-05-30T18:14:32.517Z,25.48
2019-05-30T18:17:04.977Z,25.39
2019-05-30T18:19:37.556Z,25.30
2019-05-30T18:22:10.147Z,25.26
2019-05-30T18:24:42.602Z,25.22
2019-05-30T18:27:15.383Z,25.11
2019-05-30T18:29:47.855Z,25.04
2019-05-30T18:32:20.330Z,25.00
2019-05-30T18:34:52.601Z,25.05
2019-05-30T18:37:26.247Z,24.90
2019-05-30T18:39:58.882Z,24.79
2019-05-30T18:42:31.338Z,24.70
2019-05-30T18:45:04.351Z,24.70
2019-05-30T18:47:36.929Z,24.68
2019-05-30T18:50:10.327Z,24.64
2019-05-30T18:52:43.204Z,24.64
2019-05-30T18:55:15.775Z,24.61
2019-05-30T18:57:48.248Z,24.57
2019-05-30T19:00:21.031Z,24.57
2019-05-30T19:02:53.749Z,24.55
2019-05-30T19:05:26.590Z,24.50
2019-05-30T19:07:59.171Z,24.54
2019-05-30T19:10:32.188Z,24.52
2019-05-30T19:13:05.088Z,24.50
2019-05-30T19:15:37.764Z,24.51
2019-05-30T19:18:10.501Z,24.54
2019-05-30T19:20:43.180Z,24.51
2019-05-30T19:23:15.957Z,24.45
2019-05-30T19:25:48.537Z,24.28
2019-05-30T19:28:21.039Z,24.33
2019-05-30T19:30:53.384Z,24.27
2019-05-30T19:33:26.683Z,24.26
2019-05-30T19:35:59.459Z,24.24
2019-05-30T19:38:33.333Z,24.32
2019-05-30T19:41:05.851Z,24.28
2019-05-30T19:43:38.421Z,24.28
2019-05-30T19:46:13.198Z,24.33
2019-05-30T19:48:44.906Z,24.36
2019-05-30T19:51:20.875Z,24.28
2019-05-30T19:53:52.160Z,24.27
2019-05-30T19:56:24.677Z,24.22
2019-05-30T19:58:57.768Z,24.25
2019-05-30T20:01:31.726Z,24.22
2019-05-30T20:04:05.890Z,24.23
2019-05-30T20:06:38.786Z,24.20
2019-05-30T20:09:11.353Z,24.17
2019-05-30T20:11:44.089Z,24.18
2019-05-30T20:14:16.714Z,24.12
2019-05-30T20:16:49.188Z,24.06
2019-05-30T20:19:21.865Z,24.04
2019-05-30T20:21:54.651Z,24.04
2019-05-30T20:24:26.915Z,24.07
2019-05-30T20:26:59.492Z,24.07
2019-05-30T20:29:32.882Z,24.03
2019-05-30T20:32:05.472Z,24.00
2019-05-30T20:34:39.174Z,23.90
2019-05-30T20:37:11.538Z,23.92
2019-05-30T20:39:44.027Z,23.82
2019-05-30T20:42:19.498Z,23.75
2019-05-30T20:44:50.903Z,23.79
2019-05-30T20:47:23.993Z,23.73
2019-05-30T20:49:56.476Z,23.71
2019-05-30T20:52:28.839Z,23.58
2019-05-30T20:55:01.519Z,23.56
2019-05-30T20:57:34.261Z,23.50
2019-05-30T21:00:11.002Z,23.48
2019-05-30T21:02:43.850Z,23.36
2019-05-30T21:05:16.853Z,23.38
2019-05-30T21:07:51.038Z,23.26
2019-05-30T21:10:23.228Z,23.17
2019-05-30T21:12:57.033Z,22.99
2019-05-30T21:15:32.205Z,23.04
2019-05-30T21:18:05.326Z,22.94
2019-05-30T21:20:38.552Z,22.92
2019-05-30T21:23:10.821Z,22.96
2019-05-30T21:25:43.207Z,22.96
2019-05-30T21:28:15.666Z,22.92
2019-05-30T21:30:48.552Z,22.90
2019-05-30T21:33:21.283Z,22.82
2019-05-30T21:35:54.169Z,22.76
2019-05-30T21:38:26.484Z,22.67
2019-05-30T21:40:59.064Z,22.76
2019-05-30T21:43:31.737Z,22.77
2019-05-30T21:46:04.112Z,22.60
2019-05-30T21:48:36.379Z,22.55
2019-05-30T21:51:08.859Z,22.58
2019-05-30T21:53:41.640Z,22.50
2019-05-30T21:56:15.138Z,22.42
2019-05-30T21:58:48.318Z,22.48
2019-05-30T22:01:26.968Z,22.56
2019-05-30T22:04:00.361Z,22.56
2019-05-30T22:06:32.714Z,22.58
2019-05-30T22:09:07.693Z,22.54
2019-05-30T22:11:40.017Z,22.52
2019-05-30T22:14:12.489Z,22.45
2019-05-30T22:16:45.889Z,22.42
2019-05-30T22:19:18.468Z,22.37
2019-05-30T22:21:52.212Z,22.44
2019-05-30T22:24:24.757Z,22.51
2019-05-30T22:26:57.011Z,22.38
2019-05-30T22:29:29.491Z,22.35
2019-05-30T22:32:02.778Z,22.24
2019-05-30T22:34:35.361Z,22.37
2019-05-30T22:37:07.829Z,22.24
2019-05-30T22:39:40.513Z,22.22
2019-05-30T22:42:13.193Z,22.25
2019-05-30T22:44:46.054Z,22.28
2019-05-30T22:47:18.548Z,22.25
2019-05-30T22:49:51.125Z,22.27
2019-05-30T22:52:26.055Z,22.24
2019-05-30T22:54:59.263Z,22.32
2019-05-30T22:57:31.521Z,22.10
2019-05-30T23:00:06.961Z,21.94
2019-05-30T23:02:40.360Z,21.87
2019-05-30T23:05:13.756Z,21.73
2019-05-30T23:07:47.259Z,21.74
2019-05-30T23:10:20.548Z,21.79
2019-05-30T23:12:54.063Z,21.88
2019-05-30T23:15:26.312Z,21.81
2019-05-30T23:17:58.787Z,21.81
2019-05-30T23:20:31.159Z,21.72
2019-05-30T23:23:03.528Z,21.69
2019-05-30T23:25:35.700Z,21.62
2019-05-30T23:28:08.172Z,21.58
2019-05-30T23:30:40.572Z,21.50
2019-05-30T23:33:12.916Z,21.50
2019-05-30T23:35:45.080Z,21.56
2019-05-30T23:38:17.656Z,21.54
2019-05-30T23:40:51.022Z,21.48
2019-05-30T23:43:23.222Z,21.43
2019-05-30T23:45:55.779Z,21.44
2019-05-30T23:48:28.281Z,21.28
2019-05-30T23:51:00.545Z,21.26
2019-05-30T23:53:33.428Z,21.24
2019-05-30T23:56:05.796Z,21.21
2019-05-30T23:58:38.476Z,21.19
